createdAt,value
2023-01-03T00:01:58.968Z,7.22
2023-01-03T00:04:25.496Z,7.40
2023-01-03T00:06:53.927Z,6.93
2023-01-03T00:09:23.121Z,6.40
2023-01-03T00:12:09.909Z,7.18
2023-01-03T00:14:38.723Z,6.55
2023-01-03T00:17:06.962Z,7.68
2023-01-03T00:19:36.246Z,7.13
2023-01-03T00:22:03.569Z,7.38
2023-01-03T00:24:30.121Z,7.28
2023-01-03T00:26:56.622Z,7.45
2023-01-03T00:29:23.044Z,7.95
2023-01-03T00:31:49.817Z,7.35
2023-01-03T00:34:16.544Z,7.22
2023-01-03T00:36:43.071Z,8.25
2023-01-03T00:39:11.784Z,7.82
2023-01-03T00:41:39.168Z,7.22
2023-01-03T00:44:06.318Z,7.88
2023-01-03T00:46:33.899Z,8.48
2023-01-03T00:49:00.898Z,8.68
2023-01-03T00:51:31.655Z,9.45
2023-01-03T00:53:59.736Z,9.50
2023-01-03T00:56:29.065Z,9.15
2023-01-03T00:58:56.075Z,9.57
2023-01-03T01:01:28.336Z,10.57
2023-01-03T01:03:59.803Z,10.38
2023-01-03T01:06:32.122Z,10.85
2023-01-03T01:09:00.197Z,10.90
2023-01-03T01:11:28.015Z,11.13
2023-01-03T01:13:55.177Z,10.98
2023-01-03T01:16:27.427Z,11.02
2023-01-03T01:18:54.555Z,11.73
2023-01-03T01:21:23.749Z,11.10
2023-01-03T01:23:50.842Z,12.63
2023-01-03T01:26:19.582Z,12.85
2023-01-03T01:28:47.835Z,12.02
2023-01-03T01:31:16.985Z,13.52
2023-01-03T01:33:43.901Z,13.90
2023-01-03T01:36:16.153Z,14.20
2023-01-03T01:38:42.845Z,14.68
2023-01-03T01:41:13.742Z,14.38
2023-01-03T01:44:17.655Z,14.10
2023-01-03T01:46:44.700Z,14.55
2023-01-03T01:49:20.297Z,14.55
2023-01-03T01:51:47.195Z,14.68
2023-01-03T01:54:13.882Z,14.38
2023-01-03T01:56:44.392Z,14.65
2023-01-03T01:59:12.179Z,15.38
2023-01-03T02:01:40.028Z,15.38
2023-01-03T02:04:19.278Z,16.02
2023-01-03T02:06:45.910Z,14.60
2023-01-03T02:09:12.514Z,15.95
2023-01-03T02:12:14.811Z,16.48
2023-01-03T02:14:59.475Z,16.10
2023-01-03T02:17:41.253Z,16.08
2023-01-03T02:20:31.891Z,15.75
2023-01-03T02:23:01.327Z,15.88
2023-01-03T02:25:36.726Z,15.75
2023-01-03T02:28:09.374Z,15.65
2023-01-03T02:30:37.820Z,17.42
2023-01-03T02:33:18.188Z,16.08
2023-01-03T02:36:06.564Z,17.30
2023-01-03T02:38:48.356Z,16.33
2023-01-03T02:41:33.493Z,16.85
2023-01-03T02:44:25.819Z,16.45
2023-01-03T02:47:04.518Z,16.38
2023-01-03T02:49:38.213Z,16.25
2023-01-03T02:52:09.905Z,16.90
2023-01-03T02:54:43.909Z,16.83
2023-01-03T02:57:17.706Z,17.45
2023-01-03T03:00:00.725Z,17.42
2023-01-03T03:02:34.690Z,16.85
2023-01-03T03:05:05.556Z,17.17
2023-01-03T03:07:35.625Z,17.35
2023-01-03T03:10:21.726Z,18.63
2023-01-03T03:13:09.951Z,18.10
2023-01-03T03:15:59.524Z,18.20
2023-01-03T03:18:52.794Z,18.17
2023-01-03T03:21:39.476Z,18.15
2023-01-03T03:24:39.790Z,18.42
2023-01-03T03:27:31.112Z,18.08
2023-01-03T03:30:02.706Z,17.67
2023-01-03T03:32:31.980Z,17.30
2023-01-03T03:35:01.934Z,18.92
2023-01-03T03:37:31.380Z,18.00
2023-01-03T03:40:16.483Z,18.58
2023-01-03T03:43:14.861Z,18.88
2023-01-03T03:45:44.164Z,17.88
2023-01-03T03:49:01.556Z,18.45
2023-01-03T03:51:32.637Z,18.92
2023-01-03T03:54:03.441Z,17.45
2023-01-03T03:56:32.565Z,17.88
2023-01-03T03:59:05.301Z,18.70
2023-01-03T04:01:33.867Z,18.52
2023-01-03T04:04:05.945Z,19.63
2023-01-03T04:06:47.756Z,20.47
2023-01-03T04:09:14.629Z,18.98
2023-01-03T04:11:41.345Z,19.33
2023-01-03T04:14:08.134Z,18.73
2023-01-03T04:16:34.787Z,18.85
2023-01-03T04:19:01.250Z,19.70
2023-01-03T04:21:27.780Z,20.65
2023-01-03T04:23:54.354Z,20.23
2023-01-03T04:26:21.155Z,18.20
2023-01-03T04:28:47.693Z,19.38
2023-01-03T04:31:14.308Z,20.05
2023-01-03T04:33:40.815Z,19.88
2023-01-03T04:36:07.814Z,19.58
2023-01-03T04:38:34.289Z,21.17
2023-01-03T04:41:08.931Z,19.60
2023-01-03T04:43:54.280Z,19.50
2023-01-03T04:46:21.512Z,19.83
2023-01-03T04:48:48.299Z,19.23
2023-01-03T04:51:15.326Z,18.67
2023-01-03T04:53:41.958Z,17.52
2023-01-03T04:56:08.652Z,19.65
2023-01-03T04:58:35.326Z,17.95
2023-01-03T05:01:08.125Z,18.35
2023-01-03T05:06:03.018Z,16.77
2023-01-03T05:08:29.933Z,18.13
2023-01-03T05:10:56.504Z,17.58
2023-01-03T05:13:23.343Z,18.15
2023-01-03T05:15:50.221Z,18.30
2023-01-03T05:18:17.236Z,18.80
2023-01-03T05:21:03.509Z,17.70
2023-01-03T05:23:48.400Z,19.60
2023-01-03T05:26:18.298Z,19.50
2023-01-03T05:28:48.199Z,20.83
2023-01-03T05:31:14.760Z,21.05
2023-01-03T05:33:41.696Z,20.42
2023-01-03T05:36:09.606Z,20.38
2023-01-03T05:38:37.858Z,21.55
2023-01-03T05:41:05.263Z,20.45
2023-01-03T05:43:31.753Z,22.05
2023-01-03T05:45:58.459Z,21.98
2023-01-03T05:48:25.195Z,20.77
2023-01-03T05:50:52.206Z,20.38
2023-01-03T05:53:18.763Z,24.20
2023-01-03T05:55:45.442Z,21.00
2023-01-03T05:58:12.572Z,21.13
2023-01-03T06:00:39.497Z,21.23
2023-01-03T06:03:06.437Z,20.90
2023-01-03T06:05:32.964Z,21.33
2023-01-03T06:08:01.960Z,21.08
2023-01-03T06:10:28.914Z,21.48
2023-01-03T06:12:55.793Z,23.42
2023-01-03T06:15:22.373Z,23.65
2023-01-03T06:17:55.027Z,22.48
2023-01-03T06:20:21.584Z,21.10
2023-01-03T06:22:48.095Z,23.77
2023-01-03T06:25:14.783Z,21.65
2023-01-03T06:27:41.379Z,22.85
2023-01-03T06:30:08.639Z,22.58
2023-01-03T06:32:35.202Z,22.95
2023-01-03T06:35:01.799Z,22.63
2023-01-03T06:37:28.281Z,24.05
2023-01-03T06:39:54.858Z,23.92
2023-01-03T06:42:39.560Z,22.65
2023-01-03T06:45:25.462Z,23.88
2023-01-03T06:48:10.353Z,24.20
2023-01-03T06:50:58.185Z,25.65
2023-01-03T06:53:26.832Z,24.33
2023-01-03T06:55:57.117Z,22.65
2023-01-03T06:58:24.107Z,25.80
2023-01-03T07:00:54.709Z,23.52
2023-01-03T07:03:22.019Z,23.20
2023-01-03T07:05:49.072Z,22.65
2023-01-03T07:08:15.720Z,22.23
2023-01-03T07:10:42.347Z,22.05
2023-01-03T07:13:27.506Z,21.98
2023-01-03T07:15:54.259Z,20.63
2023-01-03T07:18:20.996Z,22.45
2023-01-03T07:20:47.613Z,23.10
2023-01-03T07:23:14.310Z,21.10
2023-01-03T07:25:43.970Z,22.13
2023-01-03T07:28:12.420Z,21.73
2023-01-03T07:30:41.081Z,21.38
2023-01-03T07:33:12.021Z,22.55
2023-01-03T07:35:38.634Z,21.27
2023-01-03T07:38:06.421Z,21.25
2023-01-03T07:40:33.177Z,22.67
2023-01-03T07:43:18.437Z,23.55
2023-01-03T07:45:46.190Z,22.20
2023-01-03T07:48:13.770Z,22.58
2023-01-03T07:50:41.430Z,21.75
2023-01-03T07:53:08.885Z,22.63
2023-01-03T07:55:37.051Z,22.80
2023-01-03T07:58:03.822Z,23.10
2023-01-03T08:00:30.771Z,24.52
2023-01-03T08:02:57.355Z,24.52
2023-01-03T08:05:25.171Z,23.35
2023-01-03T08:07:52.696Z,24.45
2023-01-03T08:10:38.407Z,24.33
2023-01-03T08:13:18.188Z,23.15
2023-01-03T08:15:53.131Z,23.85
2023-01-03T08:18:22.490Z,23.88
2023-01-03T08:20:49.866Z,24.92
2023-01-03T08:23:16.363Z,26.65
2023-01-03T08:25:43.002Z,26.48
2023-01-03T08:28:10.909Z,27.30
2023-01-03T08:30:49.518Z,24.33
2023-01-03T08:33:18.433Z,26.00
2023-01-03T08:35:55.882Z,26.83
2023-01-03T08:38:27.408Z,25.30
2023-01-03T08:40:55.348Z,26.75
2023-01-03T08:43:22.133Z,26.42
2023-01-03T08:45:49.149Z,26.77
2023-01-03T08:48:19.388Z,25.45
2023-01-03T08:50:46.060Z,25.80
2023-01-03T08:53:12.549Z,28.25
2023-01-03T08:58:28.437Z,27.55
2023-01-03T09:00:54.808Z,28.58
2023-01-03T09:03:21.286Z,30.13
2023-01-03T09:05:47.745Z,30.10
2023-01-03T09:08:14.180Z,30.58
2023-01-03T09:10:47.156Z,30.98
2023-01-03T09:13:14.253Z,29.65
2023-01-03T09:15:40.747Z,30.40
2023-01-03T09:18:07.639Z,31.38
2023-01-03T09:20:34.215Z,32.08
2023-01-03T09:26:39.746Z,31.45
2023-01-03T09:29:06.332Z,33.13
2023-01-03T09:31:39.955Z,33.60
2023-01-03T09:34:06.844Z,32.38
2023-01-03T09:36:34.631Z,31.52
2023-01-03T09:39:01.147Z,33.20
2023-01-03T09:41:28.415Z,32.80
2023-01-03T09:44:02.694Z,31.98
2023-01-03T09:46:30.944Z,29.80
2023-01-03T09:48:57.846Z,29.92
2023-01-03T09:51:49.156Z,30.80
2023-01-03T09:54:41.244Z,30.05
2023-01-03T09:57:54.069Z,28.25
2023-01-03T10:00:54.406Z,27.63
2023-01-03T10:03:50.234Z,27.77
2023-01-03T10:06:35.254Z,26.35
2023-01-03T10:09:15.547Z,25.90
2023-01-03T10:11:59.603Z,24.25
2023-01-03T10:14:29.191Z,20.65
2023-01-03T10:17:14.575Z,21.55
2023-01-03T10:19:50.273Z,21.38
2023-01-03T10:22:20.803Z,20.50
2023-01-03T10:24:51.033Z,20.40
2023-01-03T10:27:22.067Z,18.80
2023-01-03T10:30:01.075Z,19.85
2023-01-03T10:32:41.240Z,18.90
2023-01-03T10:35:24.778Z,18.48
2023-01-03T10:37:53.566Z,18.52
2023-01-03T10:40:21.683Z,18.08
2023-01-03T10:42:50.292Z,17.65
2023-01-03T10:45:21.245Z,16.30
2023-01-03T10:48:01.277Z,16.80
2023-01-03T10:50:29.442Z,16.27
2023-01-03T10:53:00.362Z,16.42
2023-01-03T10:55:28.294Z,15.75
2023-01-03T10:58:21.135Z,16.20
2023-01-03T11:00:48.263Z,10.10
2023-01-03T11:03:16.660Z,13.85
2023-01-03T11:05:46.497Z,13.25
2023-01-03T11:08:35.086Z,13.30
2023-01-03T11:11:01.764Z,13.13
2023-01-03T11:13:28.417Z,12.77
2023-01-03T11:15:56.880Z,13.18
2023-01-03T11:18:27.702Z,12.30
2023-01-03T11:21:18.255Z,12.13
2023-01-03T11:24:03.942Z,11.18
2023-01-03T11:26:43.843Z,11.15
2023-01-03T11:29:16.383Z,11.73
2023-01-03T11:32:01.640Z,10.52
2023-01-03T11:35:20.780Z,11.30
2023-01-03T11:37:53.543Z,10.60
2023-01-03T11:40:33.644Z,11.57
2023-01-03T11:43:40.018Z,10.75
2023-01-03T11:46:31.894Z,9.60
2023-01-03T11:49:13.761Z,9.27
2023-01-03T11:51:58.498Z,9.30
2023-01-03T11:54:53.529Z,9.45
2023-01-03T11:57:45.742Z,8.93
2023-01-03T12:00:22.183Z,9.20
2023-01-03T12:03:07.091Z,8.00
2023-01-03T12:05:42.984Z,7.43
2023-01-03T12:08:12.542Z,8.13
2023-01-03T12:10:57.358Z,7.00
2023-01-03T12:14:01.377Z,7.53
2023-01-03T12:16:43.852Z,7.18
2023-01-03T12:19:28.651Z,6.80
2023-01-03T12:22:18.172Z,7.18
2023-01-03T12:25:05.964Z,7.32
2023-01-03T12:27:36.352Z,7.38
2023-01-03T12:30:28.148Z,8.93
2023-01-03T12:33:13.045Z,9.27
2023-01-03T12:35:49.362Z,9.68
2023-01-03T12:38:18.561Z,9.82
2023-01-03T12:40:54.448Z,11.13
2023-01-03T12:43:33.951Z,9.80
2023-01-03T12:46:12.926Z,9.13
2023-01-03T12:49:02.624Z,8.70
2023-01-03T12:51:30.138Z,9.32
2023-01-03T12:53:59.500Z,8.88
2023-01-03T12:56:34.765Z,9.18
2023-01-03T12:59:16.287Z,9.32
2023-01-03T13:01:54.431Z,9.40
2023-01-03T13:04:38.807Z,9.75
2023-01-03T13:07:14.355Z,10.00
2023-01-03T13:10:01.208Z,11.75
2023-01-03T13:12:32.006Z,10.57
2023-01-03T13:15:33.328Z,10.50
2023-01-03T13:18:20.694Z,9.45
2023-01-03T13:20:54.126Z,8.77
2023-01-03T13:23:37.072Z,8.15
2023-01-03T13:26:04.817Z,8.98
2023-01-03T13:28:36.182Z,7.18
2023-01-03T13:31:14.734Z,7.13
2023-01-03T13:33:57.948Z,6.50
2023-01-03T13:36:24.959Z,6.35
2023-01-03T13:38:51.803Z,6.50
2023-01-03T13:41:38.819Z,5.88
2023-01-03T13:44:23.457Z,5.70
2023-01-03T13:46:51.271Z,5.53
2023-01-03T13:49:24.213Z,5.20
2023-01-03T13:51:54.743Z,5.40
2023-01-03T13:54:21.217Z,5.13
2023-01-03T13:56:47.678Z,5.80
2023-01-03T13:59:14.123Z,4.95
2023-01-03T14:01:52.647Z,5.22
2023-01-03T14:05:00.683Z,5.30
2023-01-03T14:07:47.814Z,4.80
2023-01-03T14:10:48.324Z,6.22
2023-01-03T14:13:40.963Z,5.30
2023-01-03T14:16:25.589Z,5.23
2023-01-03T14:19:30.503Z,5.50
2023-01-03T14:22:31.346Z,5.00
2023-01-03T14:24:58.915Z,5.15
2023-01-03T14:27:40.718Z,5.43
2023-01-03T14:30:28.397Z,5.47
2023-01-03T14:32:54.989Z,5.47
2023-01-03T14:35:34.612Z,5.38
2023-01-03T14:38:06.457Z,5.70
2023-01-03T14:40:33.851Z,5.78
2023-01-03T14:43:04.688Z,5.30
2023-01-03T14:45:31.143Z,5.45
2023-01-03T14:47:58.011Z,5.03
2023-01-03T14:50:30.008Z,5.55
2023-01-03T14:52:58.777Z,5.70
2023-01-03T14:55:28.699Z,4.88
2023-01-03T15:00:36.411Z,4.47
2023-01-03T15:03:04.279Z,5.18
2023-01-03T15:05:40.706Z,5.30
2023-01-03T15:08:22.378Z,4.82
2023-01-03T15:10:56.870Z,5.75
2023-01-03T15:13:31.051Z,5.78
2023-01-03T15:16:01.725Z,5.97
2023-01-03T15:18:31.844Z,6.20
2023-01-03T15:21:00.036Z,6.00
2023-01-03T15:23:47.252Z,5.82
2023-01-03T15:26:23.729Z,5.63
2023-01-03T15:28:50.210Z,5.90
2023-01-03T15:31:34.568Z,6.85
2023-01-03T15:34:18.282Z,6.32
2023-01-03T15:36:54.753Z,6.30
2023-01-03T15:39:24.863Z,6.13
2023-01-03T15:42:43.568Z,5.80
2023-01-03T15:45:16.028Z,5.85
2023-01-03T15:47:43.701Z,6.05
2023-01-03T15:50:14.290Z,6.57
2023-01-03T15:52:41.214Z,6.50
2023-01-03T15:55:09.322Z,6.28
2023-01-03T15:57:35.888Z,6.25
2023-01-03T16:00:04.376Z,6.70
2023-01-03T16:02:31.928Z,6.22
2023-01-03T16:04:58.516Z,6.10
2023-01-03T16:07:26.464Z,5.82
2023-01-03T16:09:52.992Z,6.45
2023-01-03T16:12:32.925Z,6.53
2023-01-03T16:14:59.961Z,6.38
2023-01-03T16:17:28.581Z,5.68
2023-01-03T16:19:57.581Z,6.78
2023-01-03T16:22:34.371Z,5.68
2023-01-03T16:25:01.363Z,6.15
2023-01-03T16:27:27.824Z,6.13
2023-01-03T16:29:55.122Z,5.65
2023-01-03T16:32:27.138Z,6.28
2023-01-03T16:35:12.236Z,6.45
2023-01-03T16:37:38.738Z,6.47
2023-01-03T16:40:06.913Z,6.32
2023-01-03T16:42:33.388Z,6.13
2023-01-03T16:44:59.892Z,6.63
2023-01-03T16:47:33.164Z,5.93
2023-01-03T16:50:04.519Z,4.78
2023-01-03T16:52:37.739Z,6.00
2023-01-03T16:55:20.600Z,4.95
2023-01-03T16:57:53.596Z,4.85
2023-01-03T17:00:23.361Z,4.43
2023-01-03T17:02:50.229Z,4.10
2023-01-03T17:05:17.003Z,4.32
2023-01-03T17:07:46.587Z,4.38
2023-01-03T17:10:29.538Z,3.78
2023-01-03T17:12:57.940Z,4.35
2023-01-03T17:15:24.559Z,4.13
2023-01-03T17:17:51.342Z,4.07
2023-01-03T17:20:19.605Z,3.55
2023-01-03T17:22:57.712Z,3.80
2023-01-03T17:25:24.965Z,3.20
2023-01-03T17:27:59.159Z,3.47
2023-01-03T17:30:27.930Z,3.47
2023-01-03T17:32:55.350Z,3.30
2023-01-03T17:35:22.596Z,3.08
2023-01-03T17:38:23.927Z,3.22
2023-01-03T17:40:36.597Z,3.50
2023-01-03T17:43:03.105Z,3.35
2023-01-03T17:45:48.512Z,4.10
2023-01-03T17:48:33.741Z,3.05
2023-01-03T17:51:01.774Z,3.10
2023-01-03T17:53:29.464Z,2.97
2023-01-03T17:55:56.205Z,2.97
2023-01-03T17:58:37.112Z,3.50
2023-01-03T18:01:05.849Z,3.50
2023-01-03T18:03:32.492Z,3.13
2023-01-03T18:06:03.633Z,3.13
2023-01-03T18:08:30.125Z,3.55
2023-01-03T18:10:56.990Z,3.17
2023-01-03T18:13:32.185Z,3.72
2023-01-03T18:15:58.988Z,3.60
2023-01-03T18:18:27.407Z,3.83
2023-01-03T18:20:54.515Z,4.60
2023-01-03T18:23:37.722Z,3.95
2023-01-03T18:28:34.913Z,3.80
2023-01-03T18:31:01.609Z,3.65
2023-01-03T18:33:28.187Z,3.28
2023-01-03T18:35:54.995Z,3.50
2023-01-03T18:38:29.429Z,3.45
2023-01-03T18:41:03.997Z,3.35
2023-01-03T18:43:32.060Z,3.15
2023-01-03T18:45:58.669Z,3.58
2023-01-03T18:48:25.303Z,3.22
2023-01-03T18:50:58.797Z,3.28
2023-01-03T18:53:48.449Z,2.95
2023-01-03T18:56:22.164Z,3.40
2023-01-03T18:58:56.584Z,2.75
2023-01-03T19:01:29.788Z,3.10
2023-01-03T19:03:57.837Z,2.92
2023-01-03T19:06:34.344Z,3.30
2023-01-03T19:09:03.954Z,3.20
2023-01-03T19:11:34.225Z,2.95
2023-01-03T19:14:02.590Z,4.18
2023-01-03T19:16:32.384Z,3.40
2023-01-03T19:18:59.954Z,3.50
2023-01-03T19:21:32.073Z,3.45
2023-01-03T19:24:04.706Z,2.80
2023-01-03T19:26:33.745Z,2.45
2023-01-03T19:29:03.670Z,3.03
2023-01-03T19:31:41.110Z,3.00
2023-01-03T19:34:15.457Z,2.90
2023-01-03T19:36:42.257Z,2.70
2023-01-03T19:39:09.605Z,2.50
2023-01-03T19:42:01.384Z,3.15
2023-01-03T19:44:27.917Z,2.42
2023-01-03T19:46:54.542Z,2.50
2023-01-03T19:49:21.554Z,2.50
2023-01-03T19:51:48.380Z,2.13
2023-01-03T19:54:15.347Z,2.15
2023-01-03T19:56:42.167Z,1.95
2023-01-03T19:59:31.308Z,1.83
2023-01-03T20:02:24.001Z,2.00
2023-01-03T20:04:45.081Z,2.08
2023-01-03T20:07:14.924Z,2.28
2023-01-03T20:09:41.540Z,2.42
2023-01-03T20:12:14.690Z,2.00
2023-01-03T20:14:43.035Z,2.28
2023-01-03T20:17:22.721Z,2.22
2023-01-03T20:19:49.525Z,2.63
2023-01-03T20:22:45.014Z,1.90
2023-01-03T20:25:04.285Z,2.35
2023-01-03T20:27:30.880Z,2.38
2023-01-03T20:29:57.408Z,2.60
2023-01-03T20:32:24.855Z,2.33
2023-01-03T20:34:51.493Z,2.50
2023-01-03T20:37:20.710Z,2.38
2023-01-03T20:39:47.397Z,2.22
2023-01-03T20:42:24.960Z,2.47
2023-01-03T20:44:51.681Z,2.22
2023-01-03T20:47:23.571Z,2.58
2023-01-03T20:49:50.887Z,2.50
2023-01-03T20:52:18.689Z,2.35
2023-01-03T20:54:45.316Z,2.90
2023-01-03T20:59:51.011Z,2.47
2023-01-03T21:02:17.561Z,3.22
2023-01-03T21:04:44.413Z,2.63
2023-01-03T21:07:48.575Z,2.80
2023-01-03T21:10:25.199Z,3.20
2023-01-03T21:12:51.705Z,2.45
2023-01-03T21:15:18.290Z,2.30
2023-01-03T21:17:50.499Z,2.40
2023-01-03T21:20:21.017Z,2.45
2023-01-03T21:22:47.893Z,2.95
2023-01-03T21:25:19.507Z,2.72
2023-01-03T21:27:46.147Z,3.10
2023-01-03T21:30:13.847Z,2.70
2023-01-03T21:32:40.362Z,2.30
2023-01-03T21:35:09.540Z,2.20
2023-01-03T21:37:36.060Z,2.28
2023-01-03T21:40:02.578Z,2.30
2023-01-03T21:42:47.353Z,2.58
2023-01-03T21:45:14.265Z,2.47
2023-01-03T21:47:40.709Z,2.50
2023-01-03T21:50:08.053Z,2.10
2023-01-03T21:52:34.792Z,2.33
2023-01-03T21:55:01.326Z,2.38
2023-01-03T21:57:27.926Z,2.25
2023-01-03T21:59:54.411Z,2.00
2023-01-03T22:02:43.798Z,1.90
2023-01-03T22:05:10.588Z,2.53
2023-01-03T22:07:37.026Z,2.00
2023-01-03T22:10:19.261Z,1.88
2023-01-03T22:12:56.940Z,1.73
2023-01-03T22:15:24.780Z,2.20
2023-01-03T22:17:52.499Z,2.20
2023-01-03T22:20:24.825Z,2.00
2023-01-03T22:22:51.983Z,2.00
2023-01-03T22:25:21.477Z,1.73
2023-01-03T22:27:48.456Z,2.25
2023-01-03T22:30:17.631Z,2.30
2023-01-03T22:32:44.545Z,2.28
2023-01-03T22:35:12.982Z,1.75
2023-01-03T22:37:39.718Z,2.15
2023-01-03T22:40:08.130Z,2.08
2023-01-03T22:42:34.800Z,2.00
2023-01-03T22:45:01.222Z,1.80
2023-01-03T22:47:28.357Z,1.80
2023-01-03T22:49:55.106Z,2.25
2023-01-03T22:52:21.698Z,2.38
2023-01-03T22:54:48.220Z,1.65
2023-01-03T22:57:14.758Z,1.80
2023-01-03T22:59:41.353Z,1.70
2023-01-03T23:02:08.286Z,1.55
2023-01-03T23:04:34.946Z,1.70
2023-01-03T23:07:01.471Z,1.65
2023-01-03T23:09:28.295Z,2.17
2023-01-03T23:12:27.297Z,2.03
2023-01-03T23:14:53.811Z,1.80
2023-01-03T23:17:38.925Z,1.85
2023-01-03T23:20:05.925Z,2.40
2023-01-03T23:22:32.387Z,1.88
2023-01-03T23:24:58.893Z,2.05
2023-01-03T23:27:27.358Z,1.60
2023-01-03T23:29:54.821Z,1.70
2023-01-03T23:32:21.408Z,1.95
2023-01-03T23:34:47.997Z,1.75
2023-01-03T23:37:14.602Z,1.60
2023-01-03T23:39:41.060Z,1.80
2023-01-03T23:42:07.604Z,1.92
2023-01-03T23:44:34.129Z,1.90
2023-01-03T23:47:02.242Z,1.88
2023-01-03T23:49:31.459Z,1.33
2023-01-03T23:51:57.917Z,1.85
2023-01-03T23:54:24.381Z,2.00
2023-01-03T23:56:50.870Z,1.60
2023-01-03T23:59:17.461Z,1.83
